Kingsbury, Texas
Current Conditions -  °F | °C
As of 11:51 PM on Sunday 25 Jan 2015 (Local Time) from KBAZ Reporting Station
Clear Clear  
Wind Chill: 42°   Ceiling: Unl
Heat Index: 46°   Visibility: 10mi
Dew Point: 34°   Wind: 7mph
Humidity: 63%   Direction: 290°WNW
Pressure: 30.2"   Gusts: NA
Location:  29.65°N, 97.83°W
Report Text: KBAZ 260551Z AUTO 29006KT 10SM CLR 08/01 A3020 RMK AO2 SLP224 T00780011 10167 20072 402330022 51010
Loading
Personal Weather Stations






























Interactive Weather Map New forecast layout! Learn more

10-Day Weather Forecast

Advertisements
Track Severe Weather on mobile